sensor_id;sensor_type;location;lat;lon;timestamp;pressure;altitude;pressure_sealevel;temperature;humidity
38780;BME280;29273;49.962;9.768;2023-04-01T00:00:16;98167.09;;;12.83;58.78
38780;BME280;29273;49.962;9.768;2023-04-01T00:02:42;98158.06;;;12.84;59.27
38780;BME280;29273;49.962;9.768;2023-04-01T00:05:09;98158.34;;;12.88;59.70
38780;BME280;29273;49.962;9.768;2023-04-01T00:07:36;98156.50;;;12.88;60.04
38780;BME280;29273;49.962;9.768;2023-04-01T00:10:03;98153.59;;;12.90;59.56
38780;BME280;29273;49.962;9.768;2023-04-01T00:12:29;98149.88;;;12.91;59.37
38780;BME280;29273;49.962;9.768;2023-04-01T00:14:55;98157.03;;;12.90;59.00
38780;BME280;29273;49.962;9.768;2023-04-01T00:17:20;98150.66;;;12.91;59.08
38780;BME280;29273;49.962;9.768;2023-04-01T00:19:46;98150.41;;;12.93;59.20
38780;BME280;29273;49.962;9.768;2023-04-01T00:22:12;98143.22;;;12.93;59.19
38780;BME280;29273;49.962;9.768;2023-04-01T00:24:38;98136.88;;;12.94;59.26
38780;BME280;29273;49.962;9.768;2023-04-01T00:27:04;98143.78;;;12.95;59.33
38780;BME280;29273;49.962;9.768;2023-04-01T00:29:30;98146.44;;;12.95;58.99
38780;BME280;29273;49.962;9.768;2023-04-01T00:31:58;98155.25;;;13.01;60.10
38780;BME280;29273;49.962;9.768;2023-04-01T00:34:24;98157.06;;;12.95;58.53
38780;BME280;29273;49.962;9.768;2023-04-01T00:36:51;98154.16;;;12.97;58.55
38780;BME280;29273;49.962;9.768;2023-04-01T00:39:18;98136.63;;;12.96;58.73
38780;BME280;29273;49.962;9.768;2023-04-01T00:41:44;98149.91;;;12.96;58.18
38780;BME280;29273;49.962;9.768;2023-04-01T00:44:19;98147.28;;;13.01;59.75
38780;BME280;29273;49.962;9.768;2023-04-01T00:46:46;98145.34;;;12.91;57.27
38780;BME280;29273;49.962;9.768;2023-04-01T00:49:13;98152.81;;;12.94;58.11
38780;BME280;29273;49.962;9.768;2023-04-01T00:51:39;98148.53;;;12.93;57.52
38780;BME280;29273;49.962;9.768;2023-04-01T00:54:06;98150.94;;;12.95;57.56
38780;BME280;29273;49.962;9.768;2023-04-01T00:56:38;98144.88;;;13.00;58.21
38780;BME280;29273;49.962;9.768;2023-04-01T00:59:14;98146.47;;;13.01;58.85
38780;BME280;29273;49.962;9.768;2023-04-01T01:01:41;98146.72;;;12.94;57.90
38780;BME280;29273;49.962;9.768;2023-04-01T01:04:07;98148.53;;;12.93;57.65
38780;BME280;29273;49.962;9.768;2023-04-01T01:06:46;98144.88;;;13.00;59.05
38780;BME280;29273;49.962;9.768;2023-04-01T01:09:30;98147.28;;;13.01;58.81
38780;BME280;29273;49.962;9.768;2023-04-01T01:15:02;98151.78;;;13.01;58.84
38780;BME280;29273;49.962;9.768;2023-04-01T01:20:29;98133.97;;;13.01;58.42
38780;BME280;29273;49.962;9.768;2023-04-01T01:26:09;98131.84;;;13.03;58.84
38780;BME280;29273;49.962;9.768;2023-04-01T01:36:31;98121.75;;;13.00;58.00
38780;BME280;29273;49.962;9.768;2023-04-01T01:38:58;98117.19;;;12.95;57.48
38780;BME280;29273;49.962;9.768;2023-04-01T01:41:25;98116.16;;;12.96;57.44
38780;BME280;29273;49.962;9.768;2023-04-01T01:43:54;98118.03;;;12.96;57.45
38780;BME280;29273;49.962;9.768;2023-04-01T01:46:24;98124.91;;;12.97;58.03
38780;BME280;29273;49.962;9.768;2023-04-01T01:48:51;98123.06;;;12.92;57.12
38780;BME280;29273;49.962;9.768;2023-04-01T01:51:19;98129.16;;;12.93;57.07
38780;BME280;29273;49.962;9.768;2023-04-01T01:53:45;98120.66;;;12.91;56.99
38780;BME280;29273;49.962;9.768;2023-04-01T01:56:13;98121.94;;;12.88;56.45
38780;BME280;29273;49.962;9.768;2023-04-01T01:58:44;98123.84;;;12.93;57.55
38780;BME280;29273;49.962;9.768;2023-04-01T02:01:23;98123.06;;;12.92;57.37
38780;BME280;29273;49.962;9.768;2023-04-01T02:03:52;98116.38;;;12.90;57.33
38780;BME280;29273;49.962;9.768;2023-04-01T02:06:22;98127.28;;;12.93;58.16
38780;BME280;29273;49.962;9.768;2023-04-01T02:08:55;98116.66;;;12.93;58.05
38780;BME280;29273;49.962;9.768;2023-04-01T02:11:32;98117.19;;;12.90;58.08
38780;BME280;29273;49.962;9.768;2023-04-01T02:14:08;98121.69;;;12.90;58.50
38780;BME280;29273;49.962;9.768;2023-04-01T02:19:22;98117.97;;;12.86;57.82
38780;BME280;29273;49.962;9.768;2023-04-01T02:21:55;98127.25;;;12.83;58.18
38780;BME280;29273;49.962;9.768;2023-04-01T02:24:23;98122.72;;;12.84;58.03
38780;BME280;29273;49.962;9.768;2023-04-01T02:26:51;98116.88;;;12.82;57.91
38780;BME280;29273;49.962;9.768;2023-04-01T02:29:20;98109.97;;;12.81;58.42
38780;BME280;29273;49.962;9.768;2023-04-01T02:31:46;98115.22;;;12.75;57.10
38780;BME280;29273;49.962;9.768;2023-04-01T02:34:12;98120.25;;;12.72;57.00
38780;BME280;29273;49.962;9.768;2023-04-01T02:36:38;98121.09;;;12.72;57.18
38780;BME280;29273;49.962;9.768;2023-04-01T02:39:04;98129.84;;;12.73;57.33
38780;BME280;29273;49.962;9.768;2023-04-01T02:41:30;98119.47;;;12.71;57.37
38780;BME280;29273;49.962;9.768;2023-04-01T02:43:56;98121.34;;;12.71;57.37
38780;BME280;29273;49.962;9.768;2023-04-01T02:46:24;98118.44;;;12.72;57.68
38780;BME280;29273;49.962;9.768;2023-04-01T02:48:49;98122.13;;;12.71;57.49
38780;BME280;29273;49.962;9.768;2023-04-01T02:51:15;98134.38;;;12.72;57.70
38780;BME280;29273;49.962;9.768;2023-04-01T02:53:40;98121.09;;;12.72;57.40
38780;BME280;29273;49.962;9.768;2023-04-01T02:56:06;98123.75;;;12.72;57.29
38780;BME280;29273;49.962;9.768;2023-04-01T02:58:32;98128.81;;;12.74;57.50
38780;BME280;29273;49.962;9.768;2023-04-01T03:00:57;98126.94;;;12.74;57.37
38780;BME280;29273;49.962;9.768;2023-04-01T03:03:23;98139.13;;;12.75;57.36
38780;BME280;29273;49.962;9.768;2023-04-01T03:05:48;98124.03;;;12.76;57.46
38780;BME280;29273;49.962;9.768;2023-04-01T03:08:14;98130.91;;;12.77;56.76
38780;BME280;29273;49.962;9.768;2023-04-01T03:10:40;98124.03;;;12.76;56.78
38780;BME280;29273;49.962;9.768;2023-04-01T03:13:06;98125.34;;;12.78;56.99
38780;BME280;29273;49.962;9.768;2023-04-01T03:15:31;98126.44;;;12.77;56.52
38780;BME280;29273;49.962;9.768;2023-04-01T03:17:57;98124.56;;;12.78;57.02
38780;BME280;29273;49.962;9.768;2023-04-01T03:20:23;98125.34;;;12.78;56.52
38780;BME280;29273;49.962;9.768;2023-04-01T03:22:49;98125.09;;;12.80;56.85
38780;BME280;29273;49.962;9.768;2023-04-01T03:25:15;98121.66;;;12.80;56.85
38780;BME280;29273;49.962;9.768;2023-04-01T03:27:41;98122.19;;;12.82;56.92
38780;BME280;29273;49.962;9.768;2023-04-01T03:30:08;98127.75;;;12.80;56.62
38780;BME280;29273;49.962;9.768;2023-04-01T03:32:41;98125.63;;;12.82;56.52
38780;BME280;29273;49.962;9.768;2023-04-01T03:35:07;98123.78;;;12.83;56.82
38780;BME280;29273;49.962;9.768;2023-04-01T03:37:35;98139.47;;;12.84;56.33
38780;BME280;29273;49.962;9.768;2023-04-01T03:40:00;98129.66;;;12.85;56.52
38780;BME280;29273;49.962;9.768;2023-04-01T03:42:26;98129.66;;;12.85;56.29
38780;BME280;29273;49.962;9.768;2023-04-01T03:44:51;98124.59;;;12.83;56.15
38780;BME280;29273;49.962;9.768;2023-04-01T03:47:18;98128.84;;;12.84;56.51
38780;BME280;29273;49.962;9.768;2023-04-01T03:49:43;98135.22;;;12.83;55.98
38780;BME280;29273;49.962;9.768;2023-04-01T03:52:10;98129.38;;;12.86;56.68
38780;BME280;29273;49.962;9.768;2023-04-01T03:54:36;98127.78;;;12.85;56.61
38780;BME280;29273;49.962;9.768;2023-04-01T03:57:02;98125.13;;;12.85;56.15
38780;BME280;29273;49.962;9.768;2023-04-01T03:59:27;98128.59;;;12.86;56.45
38780;BME280;29273;49.962;9.768;2023-04-01T04:01:53;98121.41;;;12.86;57.11
38780;BME280;29273;49.962;9.768;2023-04-01T04:04:18;98128.34;;;12.87;57.20
38780;BME280;29273;49.962;9.768;2023-04-01T04:06:44;98120.63;;;12.86;56.44
38780;BME280;29273;49.962;9.768;2023-04-01T04:09:11;98123.03;;;12.87;56.55
38780;BME280;29273;49.962;9.768;2023-04-01T04:11:36;98125.38;;;12.84;55.24
38780;BME280;29273;49.962;9.768;2023-04-01T04:14:02;98129.38;;;12.86;56.41
38780;BME280;29273;49.962;9.768;2023-04-01T04:16:28;98122.22;;;12.87;56.57
38780;BME280;29273;49.962;9.768;2023-04-01T04:18:59;98124.31;;;12.85;56.49
38780;BME280;29273;49.962;9.768;2023-04-01T04:21:25;98132.84;;;12.87;56.52
38780;BME280;29273;49.962;9.768;2023-04-01T04:23:50;98126.72;;;12.86;56.15
38780;BME280;29273;49.962;9.768;2023-04-01T04:26:17;98125.94;;;12.86;55.72
38780;BME280;29273;49.962;9.768;2023-04-01T04:28:49;98127.78;;;12.85;56.08
38780;BME280;29273;49.962;9.768;2023-04-01T04:31:21;98124.88;;;12.92;57.04
38780;BME280;29273;49.962;9.768;2023-04-01T04:33:48;98130.19;;;12.87;56.10
38780;BME280;29273;49.962;9.768;2023-04-01T04:36:14;98133.66;;;12.87;56.41
38780;BME280;29273;49.962;9.768;2023-04-01T04:38:40;98115.06;;;12.87;56.51
38780;BME280;29273;49.962;9.768;2023-04-01T04:41:13;98124.63;;;12.93;57.79
38780;BME280;29273;49.962;9.768;2023-04-01T04:43:41;98120.38;;;12.87;56.38
38780;BME280;29273;49.962;9.768;2023-04-01T04:46:10;98126.75;;;12.91;56.77
38780;BME280;29273;49.962;9.768;2023-04-01T04:48:36;98131.00;;;12.87;56.62
38780;BME280;29273;49.962;9.768;2023-04-01T04:51:02;98125.94;;;12.86;56.37
38780;BME280;29273;49.962;9.768;2023-04-01T04:53:28;98132.03;;;12.86;56.42
38780;BME280;29273;49.962;9.768;2023-04-01T04:55:54;98132.31;;;12.85;56.82
38780;BME280;29273;49.962;9.768;2023-04-01T04:58:33;98140.00;;;12.81;56.02
38780;BME280;29273;49.962;9.768;2023-04-01T05:01:14;98140.00;;;12.86;56.31
38780;BME280;29273;49.962;9.768;2023-04-01T05:03:42;98140.75;;;12.76;56.73
38780;BME280;29273;49.962;9.768;2023-04-01T05:06:09;98144.44;;;12.75;56.93
38780;BME280;29273;49.962;9.768;2023-04-01T05:08:35;98139.97;;;12.76;57.24
38780;BME280;29273;49.962;9.768;2023-04-01T05:11:02;98138.34;;;12.75;58.26
38780;BME280;29273;49.962;9.768;2023-04-01T05:13:28;98139.69;;;12.72;58.30
38780;BME280;29273;49.962;9.768;2023-04-01T05:15:54;98140.72;;;12.71;58.40
38780;BME280;29273;49.962;9.768;2023-04-01T05:18:20;98139.94;;;12.71;58.38
38780;BME280;29273;49.962;9.768;2023-04-01T05:20:51;98135.69;;;12.75;59.20
38780;BME280;29273;49.962;9.768;2023-04-01T05:23:17;98133.53;;;12.67;58.80
38780;BME280;29273;49.962;9.768;2023-04-01T05:25:43;98138.03;;;12.66;58.71
38780;BME280;29273;49.962;9.768;2023-04-01T05:28:11;98133.53;;;12.67;58.77
38780;BME280;29273;49.962;9.768;2023-04-01T05:30:40;98129.00;;;12.67;59.05
38780;BME280;29273;49.962;9.768;2023-04-01T05:33:24;98129.53;;;12.64;58.90
38780;BME280;29273;49.962;9.768;2023-04-01T05:35:49;98128.97;;;12.62;59.38
38780;BME280;29273;49.962;9.768;2023-04-01T05:38:15;98129.78;;;12.63;59.60
38780;BME280;29273;49.962;9.768;2023-04-01T05:40:40;98128.19;;;12.62;59.14
38780;BME280;29273;49.962;9.768;2023-04-01T05:43:06;98140.66;;;12.61;59.17
38780;BME280;29273;49.962;9.768;2023-04-01T05:45:32;98136.13;;;12.62;59.36
38780;BME280;29273;49.962;9.768;2023-04-01T05:48:17;98134.81;;;12.59;59.28
38780;BME280;29273;49.962;9.768;2023-04-01T05:50:43;98139.84;;;12.61;59.60
38780;BME280;29273;49.962;9.768;2023-04-01T05:53:10;98141.44;;;12.62;59.59
38780;BME280;29273;49.962;9.768;2023-04-01T05:55:36;98147.56;;;12.62;60.03
38780;BME280;29273;49.962;9.768;2023-04-01T05:58:03;98141.19;;;12.63;60.20
38780;BME280;29273;49.962;9.768;2023-04-01T06:00:29;98134.03;;;12.64;60.32
38780;BME280;29273;49.962;9.768;2023-04-01T06:03:00;98127.69;;;12.70;60.62
38780;BME280;29273;49.962;9.768;2023-04-01T06:05:30;98134.88;;;12.69;60.55
38780;BME280;29273;49.962;9.768;2023-04-01T06:08:08;98131.97;;;12.71;60.67
38780;BME280;29273;49.962;9.768;2023-04-01T06:10:53;98140.19;;;12.69;60.49
38780;BME280;29273;49.962;9.768;2023-04-01T06:16:45;98134.06;;;12.69;60.78
38780;BME280;29273;49.962;9.768;2023-04-01T06:22:17;98144.75;;;12.74;61.06
38780;BME280;29273;49.962;9.768;2023-04-01T06:25:09;98137.81;;;12.73;60.74
38780;BME280;29273;49.962;9.768;2023-04-01T06:30:43;98136.47;;;12.75;60.75
38780;BME280;29273;49.962;9.768;2023-04-01T06:36:22;98133.56;;;12.77;60.71
38780;BME280;29273;49.962;9.768;2023-04-01T06:44:30;98149.03;;;12.85;60.48
38780;BME280;29273;49.962;9.768;2023-04-01T06:47:35;98142.91;;;12.80;59.92
38780;BME280;29273;49.962;9.768;2023-04-01T06:50:44;98147.19;;;12.86;60.93
38780;BME280;29273;49.962;9.768;2023-04-01T06:53:36;98142.13;;;12.84;60.02
38780;BME280;29273;49.962;9.768;2023-04-01T06:56:27;98142.16;;;12.89;60.07
38780;BME280;29273;49.962;9.768;2023-04-01T06:59:15;98141.41;;;12.94;60.64
38780;BME280;29273;49.962;9.768;2023-04-01T07:01:47;98145.38;;;12.96;60.36
38780;BME280;29273;49.962;9.768;2023-04-01T07:04:35;98147.75;;;12.93;60.39
38780;BME280;29273;49.962;9.768;2023-04-01T07:09:54;98141.13;;;12.95;59.72
38780;BME280;29273;49.962;9.768;2023-04-01T07:12:50;98133.72;;;12.98;59.70
38780;BME280;29273;49.962;9.768;2023-04-01T07:15:50;98136.63;;;12.96;60.18
38780;BME280;29273;49.962;9.768;2023-04-01T07:18:40;98140.31;;;12.95;60.51
38780;BME280;29273;49.962;9.768;2023-04-01T07:21:34;98137.69;;;13.00;60.87
38780;BME280;29273;49.962;9.768;2023-04-01T07:24:16;98135.84;;;13.01;61.05
38780;BME280;29273;49.962;9.768;2023-04-01T07:26:57;98147.28;;;13.01;60.40
38780;BME280;29273;49.962;9.768;2023-04-01T07:29:26;98135.28;;;12.99;60.82
38780;BME280;29273;49.962;9.768;2023-04-01T07:37:34;98140.94;;;13.07;60.39
38780;BME280;29273;49.962;9.768;2023-04-01T07:43:17;98143.31;;;13.09;60.80
38780;BME280;29273;49.962;9.768;2023-04-01T07:48:53;98145.69;;;13.05;60.95
38780;BME280;29273;49.962;9.768;2023-04-01T07:54:42;98152.13;;;13.14;61.59
38780;BME280;29273;49.962;9.768;2023-04-01T07:57:27;98160.63;;;13.17;61.16
38780;BME280;29273;49.962;9.768;2023-04-01T08:05:55;98160.38;;;13.23;61.53
38780;BME280;29273;49.962;9.768;2023-04-01T08:11:39;98164.13;;;13.22;61.55
38780;BME280;29273;49.962;9.768;2023-04-01T08:20:21;98172.66;;;13.29;61.56
38780;BME280;29273;49.962;9.768;2023-04-01T08:22:53;98169.72;;;13.26;61.30
38780;BME280;29273;49.962;9.768;2023-04-01T08:25:29;98168.66;;;13.27;61.61
38780;BME280;29273;49.962;9.768;2023-04-01T08:28:00;98176.38;;;13.28;61.38
38780;BME280;29273;49.962;9.768;2023-04-01T08:30:40;98183.47;;;13.12;62.55
38780;BME280;29273;49.962;9.768;2023-04-01T08:33:19;98169.22;;;13.29;61.70
38780;BME280;29273;49.962;9.768;2023-04-01T08:35:59;98176.91;;;13.30;61.62
38780;BME280;29273;49.962;9.768;2023-04-01T08:38:31;98174.25;;;13.30;61.56
38780;BME280;29273;49.962;9.768;2023-04-01T08:41:00;98179.53;;;13.25;61.30
38780;BME280;29273;49.962;9.768;2023-04-01T08:46:42;98176.09;;;13.30;61.95
38780;BME280;29273;49.962;9.768;2023-04-01T09:01:17;98174.78;;;13.27;62.59
38780;BME280;29273;49.962;9.768;2023-04-01T09:07:18;98178.75;;;13.30;62.90
38780;BME280;29273;49.962;9.768;2023-04-01T09:12:29;98180.94;;;13.33;62.22
38780;BME280;29273;49.962;9.768;2023-04-01T09:18:29;98174.06;;;13.42;62.92
38780;BME280;29273;49.962;9.768;2023-04-01T09:20:58;98182.06;;;13.42;62.30
38780;BME280;29273;49.962;9.768;2023-04-01T09:43:28;98180.53;;;13.67;62.57
38780;BME280;29273;49.962;9.768;2023-04-01T09:51:39;98181.88;;;13.75;62.74
38780;BME280;29273;49.962;9.768;2023-04-01T09:57:08;98177.34;;;13.75;62.46
38780;BME280;29273;49.962;9.768;2023-04-01T10:03:12;98178.72;;;13.88;62.39
38780;BME280;29273;49.962;9.768;2023-04-01T10:17:08;98185.16;;;14.02;62.69
38780;BME280;29273;49.962;9.768;2023-04-01T10:31:42;98178.75;;;14.09;62.76
38780;BME280;29273;49.962;9.768;2023-04-01T10:40:14;98184.63;;;14.21;62.52
38780;BME280;29273;49.962;9.768;2023-04-01T10:52:11;98179.84;;;14.38;62.68
38780;BME280;29273;49.962;9.768;2023-04-01T10:55:42;98180.38;;;14.40;63.22
38780;BME280;29273;49.962;9.768;2023-04-01T10:58:47;98177.72;;;14.46;62.50
38780;BME280;29273;49.962;9.768;2023-04-01T11:10:50;98178.25;;;14.48;61.43
38780;BME280;29273;49.962;9.768;2023-04-01T11:25:02;98189.97;;;14.47;61.30
38780;BME280;29273;49.962;9.768;2023-04-01T11:27:56;98188.13;;;14.52;62.48
38780;BME280;29273;49.962;9.768;2023-04-01T11:33:34;98189.44;;;14.55;61.34
38780;BME280;29273;49.962;9.768;2023-04-01T11:45:15;98196.91;;;14.68;62.94
38780;BME280;29273;49.962;9.768;2023-04-01T11:47:58;98196.38;;;14.76;62.94
38780;BME280;29273;49.962;9.768;2023-04-01T11:50:41;98195.56;;;14.81;62.89
38780;BME280;29273;49.962;9.768;2023-04-01T11:53:21;98197.16;;;14.82;62.52
38780;BME280;29273;49.962;9.768;2023-04-01T11:58:54;98192.91;;;14.86;62.76
38780;BME280;29273;49.962;9.768;2023-04-01T12:01:59;98201.16;;;14.85;62.83
38780;BME280;29273;49.962;9.768;2023-04-01T12:10:01;98201.13;;;14.95;63.08
38780;BME280;29273;49.962;9.768;2023-04-01T12:13:02;98200.09;;;14.96;63.08
38780;BME280;29273;49.962;9.768;2023-04-01T12:18:38;98212.88;;;14.99;62.35
38780;BME280;29273;49.962;9.768;2023-04-01T12:26:55;98218.19;;;15.04;62.47
38780;BME280;29273;49.962;9.768;2023-04-01T12:29:42;98220.03;;;15.04;62.61
38780;BME280;29273;49.962;9.768;2023-04-01T12:40:24;98221.13;;;15.03;62.33
38780;BME280;29273;49.962;9.768;2023-04-01T12:46:00;98208.88;;;14.96;61.56
38780;BME280;29273;49.962;9.768;2023-04-01T12:48:59;98217.41;;;14.93;62.04
38780;BME280;29273;49.962;9.768;2023-04-01T13:16:21;98236.84;;;15.04;61.52
38780;BME280;29273;49.962;9.768;2023-04-01T13:19:02;98230.19;;;15.07;62.31
38780;BME280;29273;49.962;9.768;2023-04-01T13:27:04;98233.91;;;15.16;62.19
38780;BME280;29273;49.962;9.768;2023-04-01T13:29:45;98234.44;;;15.18;61.46
38780;BME280;29273;49.962;9.768;2023-04-01T13:35:23;98238.69;;;15.19;61.91
38780;BME280;29273;49.962;9.768;2023-04-01T13:40:40;98233.34;;;15.24;61.09
38780;BME280;29273;49.962;9.768;2023-04-01T13:43:32;98239.47;;;15.25;61.56
38780;BME280;29273;49.962;9.768;2023-04-01T13:48:50;98240.25;;;15.25;61.48
38780;BME280;29273;49.962;9.768;2023-04-01T13:54:18;98243.75;;;15.26;61.44
38780;BME280;29273;49.962;9.768;2023-04-01T14:08:20;98257.34;;;15.24;62.23
38780;BME280;29273;49.962;9.768;2023-04-01T14:10:58;98253.91;;;15.03;62.59
38780;BME280;29273;49.962;9.768;2023-04-01T14:22:31;98261.63;;;15.20;62.76
38780;BME280;29273;49.962;9.768;2023-04-01T14:33:43;98281.91;;;15.11;62.40
38780;BME280;29273;49.962;9.768;2023-04-01T14:36:50;98268.31;;;15.02;62.18
38780;BME280;29273;49.962;9.768;2023-04-01T14:39:47;98273.63;;;14.97;61.78
38780;BME280;29273;49.962;9.768;2023-04-01T14:50:19;98277.66;;;14.79;62.55
38780;BME280;29273;49.962;9.768;2023-04-01T14:53:22;98283.00;;;14.79;62.24
38780;BME280;29273;49.962;9.768;2023-04-01T14:58:20;98281.66;;;14.76;63.03
38780;BME280;29273;49.962;9.768;2023-04-01T15:01:06;98277.38;;;14.75;63.14
38780;BME280;29273;49.962;9.768;2023-04-01T15:03:58;98273.38;;;14.73;63.00
38780;BME280;29273;49.962;9.768;2023-04-01T15:09:32;98281.66;;;14.76;63.02
38780;BME280;29273;49.962;9.768;2023-04-01T15:23:21;98300.56;;;14.85;63.46
38780;BME280;29273;49.962;9.768;2023-04-01T15:26:13;98302.16;;;14.86;62.74
38780;BME280;29273;49.962;9.768;2023-04-01T15:32:11;98315.22;;;14.88;62.44
38780;BME280;29273;49.962;9.768;2023-04-01T15:34:52;98313.09;;;14.90;62.43
38780;BME280;29273;49.962;9.768;2023-04-01T15:37:53;98320.84;;;14.86;62.62
38780;BME280;29273;49.962;9.768;2023-04-01T15:40:28;98314.97;;;14.89;62.38
38780;BME280;29273;49.962;9.768;2023-04-01T15:43:32;98319.78;;;14.87;62.59
38780;BME280;29273;49.962;9.768;2023-04-01T15:46:19;98324.03;;;14.83;62.98
38780;BME280;29273;49.962;9.768;2023-04-01T15:51:43;98326.16;;;14.81;62.46
38780;BME280;29273;49.962;9.768;2023-04-01T16:02:49;98330.94;;;14.69;61.25
38780;BME280;29273;49.962;9.768;2023-04-01T16:08:06;98326.69;;;14.63;61.24
38780;BME280;29273;49.962;9.768;2023-04-01T16:15:59;98351.41;;;14.53;61.78
38780;BME280;29273;49.962;9.768;2023-04-01T16:21:05;98354.06;;;14.53;62.47
38780;BME280;29273;49.962;9.768;2023-04-01T16:23:43;98355.66;;;14.54;62.61
38780;BME280;29273;49.962;9.768;2023-04-01T16:26:38;98355.09;;;14.52;62.76
38780;BME280;29273;49.962;9.768;2023-04-01T16:29:12;98360.16;;;14.48;62.94
38780;BME280;29273;49.962;9.768;2023-04-01T16:32:04;98359.91;;;14.50;62.59
38780;BME280;29273;49.962;9.768;2023-04-01T16:37:21;98365.75;;;14.47;62.39
38780;BME280;29273;49.962;9.768;2023-04-01T16:45:37;98371.06;;;14.41;62.57
38780;BME280;29273;49.962;9.768;2023-04-01T16:50:53;98380.41;;;14.39;62.60
38780;BME280;29273;49.962;9.768;2023-04-01T16:53:49;98386.50;;;14.34;62.17
38780;BME280;29273;49.962;9.768;2023-04-01T16:56:24;98393.41;;;14.35;62.55
38780;BME280;29273;49.962;9.768;2023-04-01T16:58:57;98395.53;;;14.28;62.23
38780;BME280;29273;49.962;9.768;2023-04-01T17:01:30;98396.88;;;14.31;62.30
38780;BME280;29273;49.962;9.768;2023-04-01T17:04:14;98399.53;;;14.31;62.18
38780;BME280;29273;49.962;9.768;2023-04-01T17:06:55;98402.47;;;14.29;62.46
38780;BME280;29273;49.962;9.768;2023-04-01T17:13:06;98410.44;;;14.24;61.98
38780;BME280;29273;49.962;9.768;2023-04-01T17:22:58;98420.81;;;14.25;63.12
38780;BME280;29273;49.962;9.768;2023-04-01T17:25:39;98419.22;;;14.24;62.98
38780;BME280;29273;49.962;9.768;2023-04-01T17:31:02;98420.78;;;14.20;62.72
38780;BME280;29273;49.962;9.768;2023-04-01T17:38:49;98433.78;;;14.12;62.52
38780;BME280;29273;49.962;9.768;2023-04-01T17:47:24;98450.28;;;14.09;62.71
38780;BME280;29273;49.962;9.768;2023-04-01T17:55:59;98464.06;;;14.00;62.49
38780;BME280;29273;49.962;9.768;2023-04-01T18:01:02;98469.88;;;13.92;62.32
38780;BME280;29273;49.962;9.768;2023-04-01T18:03:54;98479.72;;;13.92;61.87
38780;BME280;29273;49.962;9.768;2023-04-01T18:06:31;98489.84;;;13.95;62.50
38780;BME280;29273;49.962;9.768;2023-04-01T18:09:01;98491.44;;;13.91;62.59
38780;BME280;29273;49.962;9.768;2023-04-01T18:11:34;98494.31;;;13.84;61.80
38780;BME280;29273;49.962;9.768;2023-04-01T18:19:53;98503.88;;;13.85;62.47
38780;BME280;29273;49.962;9.768;2023-04-01T18:22:36;98507.06;;;13.82;62.58
38780;BME280;29273;49.962;9.768;2023-04-01T18:28:52;98523.81;;;13.77;62.59
38780;BME280;29273;49.962;9.768;2023-04-01T18:31:13;98527.50;;;13.76;62.14
38780;BME280;29273;49.962;9.768;2023-04-01T18:36:35;98533.88;;;13.75;62.60
38780;BME280;29273;49.962;9.768;2023-04-01T18:39:19;98535.19;;;13.73;62.67
38780;BME280;29273;49.962;9.768;2023-04-01T18:50:05;98558.53;;;13.65;62.63
38780;BME280;29273;49.962;9.768;2023-04-01T18:52:40;98559.59;;;13.64;61.95
38780;BME280;29273;49.962;9.768;2023-04-01T18:57:49;98569.69;;;13.62;62.03
38780;BME280;29273;49.962;9.768;2023-04-01T19:00:26;98567.84;;;13.63;62.47
38780;BME280;29273;49.962;9.768;2023-04-01T19:05:33;98578.72;;;13.61;62.64
38780;BME280;29273;49.962;9.768;2023-04-01T19:08:24;98582.13;;;13.57;62.39
38780;BME280;29273;49.962;9.768;2023-04-01T19:16:34;98606.31;;;13.55;62.71
38780;BME280;29273;49.962;9.768;2023-04-01T19:19:12;98613.25;;;13.56;62.72
38780;BME280;29273;49.962;9.768;2023-04-01T19:24:46;98634.78;;;13.55;62.91
38780;BME280;29273;49.962;9.768;2023-04-01T19:27:28;98630.75;;;13.52;63.11
38780;BME280;29273;49.962;9.768;2023-04-01T19:38:20;98630.34;;;13.38;62.39
38780;BME280;29273;49.962;9.768;2023-04-01T19:40:52;98631.00;;;13.28;62.69
38780;BME280;29273;49.962;9.768;2023-04-01T19:43:41;98629.94;;;13.29;63.20
38780;BME280;29273;49.962;9.768;2023-04-01T19:46:22;98636.00;;;13.25;62.83
38780;BME280;29273;49.962;9.768;2023-04-01T19:49:00;98625.06;;;13.21;62.99
38780;BME280;29273;49.962;9.768;2023-04-01T19:51:50;98637.56;;;13.21;63.13
38780;BME280;29273;49.962;9.768;2023-04-01T19:54:30;98631.13;;;13.17;63.26
38780;BME280;29273;49.962;9.768;2023-04-01T19:57:08;98633.78;;;13.17;63.83
38780;BME280;29273;49.962;9.768;2023-04-01T19:59:50;98633.97;;;13.10;64.14
38780;BME280;29273;49.962;9.768;2023-04-01T20:04:55;98647.25;;;13.10;64.03
38780;BME280;29273;49.962;9.768;2023-04-01T20:07:28;98649.97;;;13.15;63.73
38780;BME280;29273;49.962;9.768;2023-04-01T20:10:06;98653.69;;;13.14;63.97
38780;BME280;29273;49.962;9.768;2023-04-01T20:12:56;98653.34;;;13.10;63.95
38780;BME280;29273;49.962;9.768;2023-04-01T20:15:43;98659.75;;;13.09;63.94
38780;BME280;29273;49.962;9.768;2023-04-01T20:18:18;98657.63;;;13.11;64.32
38780;BME280;29273;49.962;9.768;2023-04-01T20:20:59;98661.91;;;13.12;64.20
38780;BME280;29273;49.962;9.768;2023-04-01T20:23:45;98659.00;;;13.14;64.30
38780;BME280;29273;49.962;9.768;2023-04-01T20:26:21;98662.72;;;13.13;64.15
38780;BME280;29273;49.962;9.768;2023-04-01T20:28:48;98669.59;;;12.92;64.42
38780;BME280;29273;49.962;9.768;2023-04-01T20:31:24;98665.00;;;13.04;64.37
38780;BME280;29273;49.962;9.768;2023-04-01T20:34:15;98670.88;;;13.06;64.05
38780;BME280;29273;49.962;9.768;2023-04-01T20:37:00;98671.41;;;13.08;64.02
38780;BME280;29273;49.962;9.768;2023-04-01T20:39:45;98672.47;;;13.07;63.62
38780;BME280;29273;49.962;9.768;2023-04-01T20:52:50;98682.78;;;13.04;64.51
38780;BME280;29273;49.962;9.768;2023-04-01T20:55:47;98691.56;;;13.04;64.55
38780;BME280;29273;49.962;9.768;2023-04-01T21:04:44;98694.47;;;13.03;64.39
38780;BME280;29273;49.962;9.768;2023-04-01T21:13:13;98702.44;;;13.03;64.31
38780;BME280;29273;49.962;9.768;2023-04-01T21:27:25;98724.44;;;12.98;64.33
38780;BME280;29273;49.962;9.768;2023-04-01T21:30:29;98722.25;;;12.95;64.42